Portada
METAR-TAF:

METAR-TAF

Aeroports :

Orlando Executive Airport

Orlando, Florida, Estats Units d'Amèrica

latitud: 28-32-47N, longitud: 081-20-09W, altitud: 34 m

Observació

L'informe es va fer fa 41 minuts, a les 05:53 UTC
Vent 7 kt del Nord/Nord-Oest
Temperatura 26°C
Humitat 89%
Pressió 1014 hPa
Visibilitat: 16.1 km
Cel clar

METAR: KORL 160553Z AUTO 33007KT 10SM CLR 26/24 A2993 RMK AO2 SLP139 T02610239 10283 20261 58000

Hora: 02:34 (06:34 UTC)


TAF: manca

Observacions i pronòstics meteorològics de més de 4000 aeroports (METAR i TAF).

Les estacions disponibles són els punts grocs i vermells al mapa.

Posi el ratolí al punt desitjat per veure el nom de l'estació.

Feu clic per veure les observacions i els pronòstics meteorològics.

Per canviar el mapa: feu clic els botons verds amb una creu de color negre per apropar; al botó verd amb un guió per allunyar la imatge; o en les fletxes verdes per a mapes adjacents.


METAR-TAF: